Time;durP1;ratioP1;P1;durP2;ratioP2;P2;SDS_P1;SDS_P2;PMS_P1;PMS_P2;Temp;Humidity;BMP_temperature;BMP_pressure;BME280_temperature;BME280_humidity;BME280_pressure;Samples;Min_cycle;Max_cycle;Signal;HPM_P1;HPM_P2
2021/05/31 00:02:47;;;;;;;16.55;8.90;;;;;;;8.49;65.28;101049.88;2139678;82;29692;-58
2021/05/31 00:05:50;;;;;;;;;;;;;;;8.44;65.44;101045.56;2122902;82;28220;-58
2021/05/31 00:08:52;;;;;;;12.60;8.53;;;;;;;8.38;65.55;101049.73;2120265;83;29016;-58
2021/05/31 00:11:54;;;;;;;14.65;9.13;;;;;;;8.29;65.48;101047.72;2135519;82;31343;-58
2021/05/31 00:14:55;;;;;;;13.22;8.63;;;;;;;8.23;65.74;101043.91;2120148;83;33010;-58
2021/05/31 00:17:58;;;;;;;11.73;9.18;;;;;;;8.18;65.70;101044.48;2119398;82;29413;-58
2021/05/31 00:21:01;;;;;;;14.13;8.50;;;;;;;8.12;65.74;101045.98;2141433;82;27598;-58
2021/05/31 00:24:04;;;;;;;15.08;9.88;;;;;;;8.06;65.77;101045.25;2151429;82;29019;-60
2021/05/31 00:27:06;;;;;;;13.65;9.23;;;;;;;8.01;65.95;101044.96;2120659;82;31026;-60
2021/05/31 00:30:31;;;;;;;14.28;9.28;;;;;;;7.98;66.26;101049.90;2156515;82;32941;-59
2021/05/31 00:33:33;;;;;;;13.28;9.48;;;;;;;7.93;66.72;101044.28;2007671;88;29461;-58
2021/05/31 00:36:35;;;;;;;14.58;8.08;;;;;;;7.86;66.70;101044.42;2007835;88;27943;-57
2021/05/31 00:39:37;;;;;;;11.75;8.33;;;;;;;7.82;66.86;101045.45;1983247;89;29125;-58
2021/05/31 00:42:39;;;;;;;14.30;9.18;;;;;;;7.77;67.04;101046.48;1979158;89;32268;-57
2021/05/31 00:45:41;;;;;;;12.88;8.38;;;;;;;7.70;67.26;101045.30;1982762;89;33905;-58
2021/05/31 00:48:43;;;;;;;15.18;9.48;;;;;;;7.65;67.17;101037.00;2007760;88;30629;-59
2021/05/31 00:51:46;;;;;;;15.35;8.68;;;;;;;7.59;67.40;101036.23;1983147;89;27755;-59
2021/05/31 00:54:47;;;;;;;15.03;9.63;;;;;;;7.54;67.39;101035.94;2007734;88;29000;-59
2021/05/31 00:57:50;;;;;;;13.05;9.60;;;;;;;7.48;67.49;101040.97;1982637;89;31382;-57
2021/05/31 01:00:52;;;;;;;16.82;9.70;;;;;;;7.45;67.67;101037.05;2007724;88;33291;-57
2021/05/31 01:03:53;;;;;;;14.75;9.80;;;;;;;7.40;67.62;101034.94;2007716;88;30457;-58
2021/05/31 01:07:06;;;;;;;15.13;10.55;;;;;;;7.36;67.86;101031.48;1983201;89;27685;-58
2021/05/31 01:10:20;;;;;;;15.70;9.15;;;;;;;7.32;67.93;101031.60;2045283;84;28641;-59
2021/05/31 01:13:48;;;;;;;16.17;10.20;;;;;;;7.28;67.86;101036.14;2103294;84;31003;-59
2021/05/31 01:17:26;;;;;;;15.38;9.90;;;;;;;7.24;67.99;101035.78;2047950;86;34112;-59
2021/05/31 01:20:52;;;;;;;15.50;10.32;;;;;;;7.19;68.34;101032.34;2047997;86;29277;-58
2021/05/31 01:24:02;;;;;;;22.37;10.40;;;;;;;7.13;68.33;101029.38;2048228;86;27662;-59
2021/05/31 01:27:23;;;;;;;20.50;10.90;;;;;;;7.07;68.61;101033.50;2047543;86;29032;-59
2021/05/31 01:30:25;;;;;;;17.37;10.53;;;;;;;7.00;68.85;101030.10;1957828;90;31103;-59
2021/05/31 01:33:31;;;;;;;19.48;11.78;;;;;;;6.95;68.88;101022.22;1970554;89;34244;-59
2021/05/31 01:36:35;;;;;;;17.92;11.35;;;;;;;6.94;68.72;101026.27;1972746;90;29522;-59
2021/05/31 01:39:40;;;;;;;15.38;10.68;;;;;;;6.90;68.76;101017.92;1973899;90;27754;-59
2021/05/31 01:42:42;;;;;;;18.43;11.57;;;;;;;6.87;68.81;101020.64;1974047;90;28620;-59
2021/05/31 01:45:44;;;;;;;26.50;13.53;;;;;;;6.82;68.77;101015.43;1943492;91;31245;-58
2021/05/31 01:48:48;;;;;;;18.57;11.60;;;;;;;6.79;68.93;101018.16;1972222;90;33328;-58
2021/05/31 01:51:51;;;;;;;21.70;12.20;;;;;;;6.75;68.85;101016.46;1952701;90;29171;-59
2021/05/31 01:54:56;;;;;;;23.90;13.40;;;;;;;6.70;69.06;101012.58;1970108;89;27734;-58
2021/05/31 01:57:58;;;;;;;18.05;11.25;;;;;;;6.65;69.23;101011.36;1979201;89;29214;-58
2021/05/31 02:01:00;;;;;;;22.22;12.65;;;;;;;6.59;69.24;101010.14;1973149;90;31846;-58
2021/05/31 02:04:01;;;;;;;21.15;12.73;;;;;;;6.54;69.28;101012.02;1980436;89;33352;-59
2021/05/31 02:07:03;;;;;;;21.07;11.97;;;;;;;6.50;69.30;101014.35;2047105;84;30115;-59
2021/05/31 02:10:08;;;;;;;24.12;12.35;;;;;;;6.47;69.37;101013.94;2081073;84;27680;-59
2021/05/31 02:13:12;;;;;;;12.55;8.60;;;;;;;6.45;69.32;101013.56;2103673;84;28617;-58
2021/05/31 02:16:23;;;;;;;20.10;11.75;;;;;;;6.43;69.58;101013.61;2083834;84;31505;-58
2021/05/31 02:19:25;;;;;;;19.60;11.88;;;;;;;6.42;69.63;101010.95;2113801;84;32963;-59
2021/05/31 02:22:29;;;;;;;18.35;11.33;;;;;;;6.39;69.75;101010.11;2107297;84;30459;-59
2021/05/31 02:25:32;;;;;;;18.73;11.57;;;;;;;6.37;69.84;101009.73;2066595;84;28283;-58
2021/05/31 02:28:34;;;;;;;21.77;12.30;;;;;;;6.32;69.95;101011.16;2097040;84;28428;-59
2021/05/31 02:31:36;;;;;;;18.12;11.53;;;;;;;6.29;70.00;101017.88;2054481;84;31019;-59
2021/05/31 02:34:38;;;;;;;16.05;11.38;;;;;;;6.27;69.96;101010.37;2102768;84;33314;-58
2021/05/31 02:37:40;;;;;;;20.02;11.57;;;;;;;6.25;69.92;101013.51;2071378;85;29695;-60
2021/05/31 02:40:42;;;;;;;16.97;11.93;;;;;;;6.23;69.82;101013.99;2104689;84;27738;-59
2021/05/31 02:43:44;;;;;;;18.85;11.60;;;;;;;6.20;69.85;101013.61;2116622;84;29039;-58
2021/05/31 02:46:46;;;;;;;16.95;10.75;;;;;;;6.17;69.96;101019.45;2067263;84;29636;-59
2021/05/31 02:49:47;;;;;;;25.27;15.13;;;;;;;6.15;70.06;101019.94;2089813;83;32960;-59
2021/05/31 02:52:49;;;;;;;21.15;13.10;;;;;;;6.12;70.07;101016.00;2124605;83;30260;-59
2021/05/31 02:55:51;;;;;;;18.42;10.70;;;;;;;6.10;70.00;101012.05;2097830;84;27676;-59
2021/05/31 02:58:53;;;;;;;18.82;11.68;;;;;;;6.11;69.99;101014.24;2130895;83;28513;-59
2021/05/31 03:01:55;;;;;;;22.82;12.33;;;;;;;6.11;70.04;101008.92;2090744;84;32254;-59
2021/05/31 03:04:57;;;;;;;20.92;12.07;;;;;;;6.11;70.18;101011.14;2101722;83;32995;-59
2021/05/31 03:08:00;;;;;;;23.10;12.20;;;;;;;6.14;70.24;101007.53;2070086;85;29841;-58
2021/05/31 03:11:02;;;;;;;20.23;12.53;;;;;;;6.15;70.23;101011.95;2104555;84;28286;-59
2021/05/31 03:14:04;;;;;;;19.05;11.60;;;;;;;6.16;70.34;101006.59;2117385;84;29032;-58
2021/05/31 03:17:06;;;;;;;15.40;10.78;;;;;;;6.19;70.40;101009.66;2098703;84;30862;-58
2021/05/31 03:20:10;;;;;;;16.45;11.00;;;;;;;6.21;70.48;101006.05;2117371;83;33537;-58
2021/05/31 03:23:12;;;;;;;21.00;13.83;;;;;;;6.25;70.51;101006.00;2117493;83;30038;-59
2021/05/31 03:26:14;;;;;;;16.07;11.53;;;;;;;6.28;70.51;101009.93;2113040;84;27605;-58
2021/05/31 03:29:16;;;;;;;18.27;11.40;;;;;;;6.31;70.53;101008.52;2108484;84;29765;-58
2021/05/31 03:32:18;;;;;;;14.98;10.93;;;;;;;6.36;70.55;101010.20;2099652;84;31088;-58
2021/05/31 03:35:20;;;;;;;17.85;11.22;;;;;;;6.44;70.62;101009.14;2086636;84;34156;-58
2021/05/31 03:38:22;;;;;;;22.17;11.15;;;;;;;6.48;70.61;101003.72;2100557;84;30977;-58
2021/05/31 03:41:24;;;;;;;19.67;10.63;;;;;;;6.55;70.61;101003.13;2068256;85;27611;-58
2021/05/31 03:44:26;;;;;;;17.23;11.10;;;;;;;6.65;70.57;101004.70;2068076;86;29830;-58
2021/05/31 03:47:27;;;;;;;16.30;11.53;;;;;;;6.74;70.66;101001.39;2084553;84;31735;-58
2021/05/31 03:50:31;;;;;;;17.35;11.38;;;;;;;6.82;70.76;100998.98;2084106;85;32984;-59
2021/05/31 03:53:33;;;;;;;17.55;11.57;;;;;;;6.94;70.80;101004.96;2081903;85;29380;-59
2021/05/31 03:56:35;;;;;;;15.75;10.43;;;;;;;7.02;70.82;100994.98;2077495;85;27653;-59
2021/05/31 03:59:36;;;;;;;21.07;11.48;;;;;;;7.12;70.82;100999.17;2053705;85;29606;-59
2021/05/31 04:02:41;;;;;;;21.33;11.65;;;;;;;7.22;70.72;100991.83;2055946;85;31216;-59
2021/05/31 04:05:52;;;;;;;21.10;11.75;;;;;;;7.31;70.72;100997.39;2049976;86;32955;-60
2021/05/31 04:12:09;;;;;;;20.20;11.68;;;;;;;7.52;70.81;100988.44;2072964;85;27660;-60
2021/05/31 04:15:13;;;;;;;22.42;11.80;;;;;;;7.64;70.87;100988.11;2072370;84;28639;-59
2021/05/31 04:18:15;;;;;;;21.57;11.63;;;;;;;7.76;70.94;100985.58;2060529;85;31698;-59
2021/05/31 04:21:16;;;;;;;23.07;12.07;;;;;;;7.89;70.96;100988.33;2083815;85;34135;-59
2021/05/31 04:24:20;;;;;;;18.27;11.10;;;;;;;8.03;70.96;100991.95;2076509;85;30451;-59
2021/05/31 04:27:21;;;;;;;17.85;11.33;;;;;;;8.19;70.97;100990.19;2052000;85;27738;-59
2021/05/31 04:30:24;;;;;;;17.65;10.50;;;;;;;8.36;70.89;100990.58;2052692;85;28629;-59
2021/05/31 04:33:25;;;;;;;18.45;10.20;;;;;;;8.52;70.86;100992.83;2088871;83;30993;-59
2021/05/31 04:36:31;;;;;;;17.60;10.35;;;;;;;8.70;70.70;100991.86;2120527;83;34076;-59
2021/05/31 04:39:33;;;;;;;19.30;9.93;;;;;;;9.06;71.32;100993.82;2086715;84;30036;-60
2021/05/31 04:42:34;;;;;;;17.90;8.90;;;;;;;10.01;71.75;100986.62;2106406;84;27537;-60
2021/05/31 04:45:36;;;;;;;16.93;8.60;;;;;;;11.32;71.52;100989.22;2108250;83;28633;-61
2021/05/31 04:48:38;;;;;;;15.72;8.40;;;;;;;12.74;70.01;100980.23;2085396;85;31599;-60
2021/05/31 04:51:40;;;;;;;13.85;7.58;;;;;;;14.10;68.15;100975.23;2138613;83;34283;-60
2021/05/31 04:54:43;;;;;;;12.45;7.08;;;;;;;15.39;67.02;100978.03;2138822;81;29718;-61
2021/05/31 04:57:46;;;;;;;11.88;6.78;;;;;;;16.63;64.66;100967.76;2089929;82;28541;-61
2021/05/31 05:00:49;;;;;;;9.38;5.53;;;;;;;17.73;62.96;100966.78;2085172;85;28634;-62
2021/05/31 05:03:51;;;;;;;8.73;6.33;;;;;;;18.62;60.53;100965.53;2089456;83;30997;-61
2021/05/31 05:06:52;;;;;;;8.83;6.50;;;;;;;19.44;58.58;100962.69;2099217;83;33380;-61
2021/05/31 05:09:54;;;;;;;12.43;6.40;;;;;;;20.18;57.25;100964.24;2111740;84;29353;-61
2021/05/31 05:12:56;;;;;;;8.40;5.50;;;;;;;20.98;55.51;100959.63;2072466;85;28172;-61
2021/05/31 05:15:58;;;;;;;11.28;6.58;;;;;;;21.65;54.29;100962.23;2082210;85;28539;-61
2021/05/31 05:18:59;;;;;;;7.17;5.12;;;;;;;22.32;52.92;100955.95;2118094;84;31365;-71
2021/05/31 05:22:01;;;;;;;9.53;5.28;;;;;;;22.95;51.59;100950.77;2120685;83;33389;-75
2021/05/31 05:25:04;;;;;;;8.70;5.40;;;;;;;23.40;49.93;100960.34;2120748;83;30025;-71
2021/05/31 05:28:06;;;;;;;8.30;5.15;;;;;;;23.85;48.00;100953.88;2120972;83;27672;-61
2021/05/31 05:31:09;;;;;;;10.40;5.05;;;;;;;24.32;48.09;100958.05;2120885;83;28582;-61
2021/05/31 05:34:11;;;;;;;8.83;5.20;;;;;;;24.85;46.72;100956.50;2108473;83;31377;-61
2021/05/31 05:37:22;;;;;;;9.28;5.45;;;;;;;25.15;45.56;100950.83;2098243;84;33334;-61
2021/05/31 05:40:48;;;;;;;7.47;4.97;;;;;;;25.71;44.68;100951.53;2101060;84;29729;-61
2021/05/31 05:43:47;;;;;;;7.50;5.10;;;;;;;26.15;43.21;100944.28;2044213;86;27564;-61
2021/05/31 05:46:48;;;;;;;7.30;4.70;;;;;;;26.38;41.96;100938.58;2032216;86;28874;-62
2021/05/31 05:49:47;;;;;;;8.83;4.80;;;;;;;26.17;40.64;100948.58;2057665;85;32192;-61
2021/05/31 05:52:49;;;;;;;8.33;5.30;;;;;;;25.90;40.18;100947.70;2081052;85;33388;-60
2021/05/31 05:55:51;;;;;;;7.40;5.08;;;;;;;26.06;40.34;100944.19;2079396;85;30436;-61
2021/05/31 05:58:54;;;;;;;7.65;5.00;;;;;;;26.40;39.78;100949.39;2083479;85;27602;-61
2021/05/31 06:01:56;;;;;;;7.80;5.30;;;;;;;26.87;38.87;100943.06;2073173;85;28621;-62
2021/05/31 06:04:58;;;;;;;8.98;5.78;;;;;;;27.15;37.84;100943.11;2049910;85;31942;-62
2021/05/31 06:08:00;;;;;;;6.83;5.03;;;;;;;27.24;36.96;100944.52;2049886;86;33340;-61
2021/05/31 06:11:02;;;;;;;8.10;4.72;;;;;;;27.47;36.58;100950.77;2063570;85;30456;-59
2021/05/31 06:14:04;;;;;;;7.55;4.37;;;;;;;27.62;36.21;100955.92;2054244;85;27718;-60
2021/05/31 06:17:06;;;;;;;5.80;4.90;;;;;;;27.73;36.04;100956.06;2083974;85;29015;-60
2021/05/31 06:20:09;;;;;;;6.67;4.67;;;;;;;27.98;35.89;100956.89;2073108;85;32125;-60
2021/05/31 06:23:11;;;;;;;7.75;4.50;;;;;;;28.00;34.31;100955.36;2049952;86;33376;-60
2021/05/31 06:26:13;;;;;;;6.05;4.20;;;;;;;28.08;35.03;100959.45;2049839;86;30396;-62
2021/05/31 06:29:15;;;;;;;7.22;5.00;;;;;;;28.43;34.52;100958.70;2050099;86;27601;-60
2021/05/31 06:32:17;;;;;;;9.65;4.30;;;;;;;28.50;33.59;100954.71;2049951;86;28772;-62
2021/05/31 06:35:18;;;;;;;6.78;3.80;;;;;;;28.59;33.81;100954.16;2079091;85;31317;-62
2021/05/31 06:38:20;;;;;;;8.83;4.22;;;;;;;28.85;32.77;100961.32;2081715;85;34195;-62
2021/05/31 06:41:22;;;;;;;5.53;3.87;;;;;;;28.46;31.46;100963.86;2102763;84;29090;-61
2021/05/31 06:44:23;;;;;;;6.40;4.22;;;;;;;28.40;31.57;100958.20;2081656;85;27487;-61
2021/05/31 06:47:25;;;;;;;8.63;3.87;;;;;;;28.41;31.90;100957.17;2110878;82;29027;-61
2021/05/31 06:50:30;;;;;;;5.15;3.70;;;;;;;28.47;31.71;100960.08;2152486;82;30779;-61
2021/05/31 06:53:33;;;;;;;11.88;4.35;;;;;;;28.51;31.46;100952.30;2153741;82;33957;-60
2021/05/31 06:56:35;;;;;;;5.45;4.85;;;;;;;28.72;31.36;100943.41;2153766;82;29694;-61
2021/05/31 06:59:36;;;;;;;7.67;4.40;;;;;;;28.80;30.86;100946.16;2153865;82;27905;-61
2021/05/31 07:02:39;;;;;;;6.00;3.67;;;;;;;28.94;30.57;100948.68;2153719;82;28805;-61
2021/05/31 07:05:40;;;;;;;6.40;4.00;;;;;;;29.04;30.49;100947.04;2151597;82;31550;-61
2021/05/31 07:08:42;;;;;;;7.35;3.75;;;;;;;29.11;29.87;100945.81;2117659;84;34061;-61
2021/05/31 07:11:46;;;;;;;6.95;3.92;;;;;;;29.14;29.78;100944.58;2116504;84;29715;-62
2021/05/31 07:14:51;;;;;;;5.10;3.33;;;;;;;29.10;29.01;100946.86;2117474;84;27592;-61
2021/05/31 07:17:52;;;;;;;5.90;2.27;;;;;;;29.07;29.11;100946.68;2117228;84;29147;-61
2021/05/31 07:20:53;;;;;;;4.85;2.50;;;;;;;29.06;26.99;100942.73;2117357;84;31557;-61
2021/05/31 07:23:55;;;;;;;4.22;2.27;;;;;;;28.94;26.82;100948.68;2117293;84;33369;-60
2021/05/31 07:26:57;;;;;;;11.15;7.45;;;;;;;28.53;25.26;100939.73;2117253;84;29714;-60
2021/05/31 07:29:58;;;;;;;7.95;3.02;;;;;;;28.19;25.46;100949.50;2117294;84;27604;-60
2021/05/31 07:33:01;;;;;;;6.15;2.30;;;;;;;28.01;25.75;100945.53;2117332;83;29030;-60
2021/05/31 07:36:04;;;;;;;3.87;1.98;;;;;;;28.02;25.37;100946.41;2118544;84;30998;-61
2021/05/31 07:39:06;;;;;;;3.72;1.80;;;;;;;27.99;24.49;100942.09;2118347;84;32654;-62
2021/05/31 07:42:08;;;;;;;6.35;2.17;;;;;;;27.83;25.05;100946.25;2118596;84;29745;-59
2021/05/31 07:45:13;;;;;;;4.65;2.15;;;;;;;27.95;25.59;100942.13;2118501;84;27721;-61
2021/05/31 07:48:15;;;;;;;3.85;1.75;;;;;;;28.03;25.45;100932.45;2118520;84;29198;-61
2021/05/31 07:51:18;;;;;;;3.85;1.70;;;;;;;28.06;25.32;100931.22;2118425;84;32281;-60
2021/05/31 07:54:23;;;;;;;5.25;2.25;;;;;;;27.91;24.46;100928.34;2118881;84;33172;-61
2021/05/31 07:57:25;;;;;;;3.37;2.12;;;;;;;27.81;24.67;100924.91;2118499;84;30093;-60
2021/05/31 08:00:29;;;;;;;10.18;6.70;;;;;;;27.62;24.82;100920.64;2118463;84;27558;-60
2021/05/31 08:03:31;;;;;;;5.60;4.03;;;;;;;27.61;24.78;100921.17;2118480;84;28661;-61
2021/05/31 08:06:34;;;;;;;2.62;2.27;;;;;;;27.62;24.74;100925.64;2118469;84;31006;-61
2021/05/31 08:09:38;;;;;;;2.92;2.27;;;;;;;27.56;24.38;100920.29;2118531;84;33170;-61
2021/05/31 08:12:40;;;;;;;4.67;2.47;;;;;;;27.49;24.33;100909.65;2118468;84;35171;-61
2021/05/31 08:15:42;;;;;;;5.33;2.20;;;;;;;27.46;24.60;100916.87;2118418;84;27633;-61
2021/05/31 08:18:45;;;;;;;3.80;1.90;;;;;;;27.38;24.44;100914.95;2118450;84;29818;-61
2021/05/31 08:21:48;;;;;;;5.20;2.15;;;;;;;27.47;24.66;100912.23;2118370;84;30836;-61
2021/05/31 08:24:51;;;;;;;4.80;2.20;;;;;;;27.54;24.42;100914.13;2118381;84;33710;-61
2021/05/31 08:27:53;;;;;;;2.05;1.75;;;;;;;27.40;24.33;100921.14;2118491;84;29686;-60
2021/05/31 08:30:54;;;;;;;3.40;1.82;;;;;;;27.31;24.36;100908.39;2117750;84;27597;-60
2021/05/31 08:33:56;;;;;;;5.08;1.55;;;;;;;27.33;23.80;100913.22;2118125;83;28638;-61
2021/05/31 08:36:58;;;;;;;6.75;2.15;;;;;;;27.26;23.80;100904.79;2117248;84;30894;-61
2021/05/31 08:40:00;;;;;;;1.50;1.40;;;;;;;27.17;23.94;100911.33;2117231;84;33750;-60
2021/05/31 08:43:01;;;;;;;3.20;1.75;;;;;;;27.07;23.79;100906.48;2117177;84;30513;-61
2021/05/31 08:46:03;;;;;;;9.83;1.75;;;;;;;26.89;23.49;100895.64;2117263;84;27656;-60
2021/05/31 08:49:07;;;;;;;2.80;1.82;;;;;;;26.79;24.34;100899.42;2117084;84;28689;-61
2021/05/31 08:52:08;;;;;;;3.42;1.62;;;;;;;26.70;24.25;100893.50;2117075;84;30978;-60
2021/05/31 08:55:12;;;;;;;3.42;1.50;;;;;;;26.64;23.76;100895.57;2117036;84;33187;-61
2021/05/31 08:58:14;;;;;;;2.80;1.65;;;;;;;26.52;23.68;100889.52;2117210;84;29403;-60
2021/05/31 09:01:18;;;;;;;3.15;1.85;;;;;;;26.42;22.96;100892.89;2117369;84;27541;-59
2021/05/31 09:04:20;;;;;;;3.50;2.08;;;;;;;26.04;22.43;100897.33;2117412;84;29360;-60
2021/05/31 09:07:22;;;;;;;3.37;2.02;;;;;;;25.67;22.81;100895.23;2117336;84;31553;-59
2021/05/31 09:10:25;;;;;;;2.10;1.12;;;;;;;25.22;23.00;100898.97;2117078;84;33835;-60
2021/05/31 09:13:38;;;;;;;2.08;1.60;;;;;;;24.84;20.22;100902.70;2117149;84;29339;-59
2021/05/31 09:16:40;;;;;;;5.60;2.27;;;;;;;24.35;22.62;100901.59;2117205;84;27629;-60
2021/05/31 09:19:48;;;;;;;2.30;1.67;;;;;;;24.29;23.22;100900.84;2117047;84;29693;-59
2021/05/31 09:22:56;;;;;;;4.00;2.30;;;;;;;24.17;23.15;100893.33;2116521;82;29081;-60
2021/05/31 09:26:04;;;;;;;4.90;2.22;;;;;;;24.03;23.89;100897.41;2116765;84;32950;-59
2021/05/31 09:29:08;;;;;;;3.62;2.25;;;;;;;23.78;24.82;100895.66;2117075;84;29378;-61
2021/05/31 09:32:10;;;;;;;4.65;3.17;;;;;;;23.62;25.68;100889.95;2116622;84;28292;-60
2021/05/31 09:35:13;;;;;;;4.45;2.65;;;;;;;23.48;26.60;100888.03;2117677;83;29023;-59
2021/05/31 09:38:16;;;;;;;5.12;2.65;;;;;;;23.36;26.82;100882.34;2118260;84;31423;-60
2021/05/31 09:41:27;;;;;;;5.35;2.52;;;;;;;23.22;27.33;100887.77;2118048;84;33738;-60
2021/05/31 09:44:29;;;;;;;5.58;2.75;;;;;;;23.13;27.80;100879.02;2118260;84;30047;-59
2021/05/31 09:47:34;;;;;;;5.62;2.62;;;;;;;23.09;27.75;100879.81;2118319;84;27626;-60
2021/05/31 09:50:37;;;;;;;3.80;2.52;;;;;;;23.00;27.81;100878.80;2117605;84;30175;-60
2021/05/31 09:53:39;;;;;;;3.15;2.58;;;;;;;22.72;27.84;100873.67;2118355;84;31756;-59
2021/05/31 09:56:40;;;;;;;7.20;3.17;;;;;;;22.63;28.87;100879.48;2118174;84;33849;-59
2021/05/31 10:00:00;;;;;;;2.95;2.65;;;;;;;22.58;29.17;100883.16;2118136;84;29678;-60
2021/05/31 10:03:21;;;;;;;4.75;2.30;;;;;;;22.37;29.24;100866.81;2118966;84;27680;-59
2021/05/31 10:06:35;;;;;;;5.53;2.50;;;;;;;22.23;29.53;100875.75;2117747;84;28656;-58
2021/05/31 10:09:23;;;;;;;4.20;2.50;;;;;;;22.20;29.69;100866.98;2115511;84;31037;-60
2021/05/31 10:12:26;;;;;;;5.92;2.40;;;;;;;22.25;29.86;100868.81;2103771;84;33328;-71
2021/05/31 10:15:35;;;;;;;3.20;2.30;;;;;;;22.26;29.45;100857.73;2097876;84;29423;-68
2021/05/31 10:18:44;;;;;;;6.85;3.00;;;;;;;22.26;29.88;100864.56;2112616;84;27594;-78
2021/05/31 10:21:43;;;;;;;2.77;2.33;;;;;;;22.30;30.67;100864.66;2102053;83;28615;-75
2021/05/31 10:24:48;;;;;;;3.83;2.20;;;;;;;22.37;30.58;100858.62;2075318;84;31192;-78
2021/05/31 10:28:07;;;;;;;8.03;3.20;;;;;;;22.34;30.72;100859.77;2111148;84;32964;-60
2021/05/31 10:31:11;;;;;;;6.50;2.70;;;;;;;22.19;30.85;100852.45;2117268;84;30105;-58
2021/05/31 10:34:22;;;;;;;5.08;3.05;;;;;;;21.89;31.44;100856.94;2116295;83;27718;-58
2021/05/31 10:37:29;;;;;;;3.55;2.42;;;;;;;21.84;31.45;100859.23;2111807;83;28772;-59
2021/05/31 10:40:34;;;;;;;3.00;2.42;;;;;;;21.95;31.89;100853.67;2061233;85;31013;-59
2021/05/31 10:43:44;;;;;;;9.08;2.67;;;;;;;22.00;32.18;100846.44;2096601;83;32858;-59
2021/05/31 10:46:47;;;;;;;3.60;2.25;;;;;;;21.95;32.14;100848.22;2102670;84;29343;-59
2021/05/31 10:49:56;;;;;;;6.70;2.50;;;;;;;21.85;31.70;100851.39;2086255;84;27594;-58
2021/05/31 10:52:59;;;;;;;5.35;2.60;;;;;;;21.72;31.82;100850.75;2117243;84;28417;-58
2021/05/31 10:56:11;;;;;;;4.28;2.83;;;;;;;21.75;32.54;100849.12;2104721;84;30993;-65
2021/05/31 10:59:19;;;;;;;7.00;3.50;;;;;;;21.81;32.47;100852.17;2117250;84;32965;-67
2021/05/31 11:02:29;;;;;;;3.90;2.65;;;;;;;21.67;32.67;100850.69;2117145;84;29329;-60
2021/05/31 11:05:33;;;;;;;2.62;2.10;;;;;;;21.52;32.63;100854.70;2117240;84;27649;-59
2021/05/31 11:08:35;;;;;;;7.28;3.50;;;;;;;21.31;32.60;100850.62;2117208;84;28635;-59
2021/05/31 11:11:50;;;;;;;4.53;2.27;;;;;;;21.23;32.06;100843.11;2117044;83;31624;-60
2021/05/31 11:14:52;;;;;;;3.87;2.70;;;;;;;21.34;33.00;100836.73;2117141;83;32408;-60
2021/05/31 11:17:56;;;;;;;4.35;2.20;;;;;;;21.32;32.93;100845.05;2116928;84;54429;-60
2021/05/31 11:20:59;;;;;;;7.17;2.90;;;;;;;21.10;32.75;100838.72;2117321;84;27203;-67
2021/05/31 11:24:15;;;;;;;5.28;2.27;;;;;;;21.00;33.07;100839.64;2082917;84;28641;-70
2021/05/31 11:27:23;;;;;;;3.17;2.12;;;;;;;20.93;33.02;100828.41;2066985;86;31003;-70
2021/05/31 11:30:29;;;;;;;3.20;2.37;;;;;;;20.97;32.56;100824.91;2079959;85;32933;-59
2021/05/31 11:33:33;;;;;;;2.05;1.85;;;;;;;20.99;32.90;100818.84;2082880;84;30213;-66
2021/05/31 11:36:40;;;;;;;12.10;3.33;;;;;;;21.02;32.02;100812.62;2098912;84;27655;-60
2021/05/31 11:39:42;;;;;;;3.25;2.05;;;;;;;21.01;32.35;100818.21;2096935;84;28740;-60
2021/05/31 11:43:01;;;;;;;4.20;2.75;;;;;;;20.99;32.42;100818.36;2080717;85;31902;-60
2021/05/31 11:46:02;;;;;;;8.83;3.22;;;;;;;20.91;32.90;100823.09;2098646;84;33298;-60
2021/05/31 11:49:07;;;;;;;3.67;2.22;;;;;;;20.54;33.00;100826.17;2098940;84;29857;-61
2021/05/31 11:52:11;;;;;;;4.15;2.65;;;;;;;20.36;33.34;100823.10;2098670;84;27635;-68
2021/05/31 11:55:25;;;;;;;4.25;2.33;;;;;;;20.23;32.99;100823.75;2080335;85;28803;-61
2021/05/31 11:58:27;;;;;;;2.67;1.90;;;;;;;20.10;33.04;100815.25;2114545;83;31685;-59
2021/05/31 12:01:30;;;;;;;3.30;1.80;;;;;;;20.08;32.50;100816.37;2116836;84;32886;-60
2021/05/31 12:04:32;;;;;;;4.17;1.77;;;;;;;19.98;31.77;100806.23;2116107;84;30084;-59
2021/05/31 12:07:38;;;;;;;3.85;2.00;;;;;;;19.91;32.01;100800.05;2116974;83;27537;-68
2021/05/31 12:10:46;;;;;;;2.95;2.05;;;;;;;20.01;32.37;100800.55;2115759;84;29354;-74
2021/05/31 12:13:48;;;;;;;5.92;2.15;;;;;;;20.13;32.43;100793.23;2116964;84;31706;-82
2021/05/31 12:16:59;;;;;;;6.50;3.45;;;;;;;20.23;32.19;100796.55;2117080;84;33686;-60
2021/05/31 12:20:00;;;;;;;7.95;3.87;;;;;;;20.20;32.31;100796.31;2116771;84;29392;-59
2021/05/31 12:23:02;;;;;;;10.80;3.25;;;;;;;20.17;31.92;100788.40;2117206;84;27605;-60
2021/05/31 12:26:08;;;;;;;14.87;4.00;;;;;;;20.13;31.87;100782.36;2116992;84;29658;-59
2021/05/31 12:29:11;;;;;;;5.25;3.33;;;;;;;20.13;32.30;100777.39;2117191;84;31012;-60
2021/05/31 12:32:16;;;;;;;3.98;1.90;;;;;;;20.24;32.04;100775.16;2116982;84;33123;-59
2021/05/31 12:35:18;;;;;;;7.65;3.35;;;;;;;20.27;31.96;100782.55;2116179;83;29400;-60
2021/05/31 12:38:21;;;;;;;7.78;2.75;;;;;;;20.28;32.16;100787.00;2116873;84;28095;-60
2021/05/31 12:41:25;;;;;;;5.67;2.80;;;;;;;20.30;32.07;100783.66;2116758;83;28798;-61
2021/05/31 12:44:30;;;;;;;3.15;2.20;;;;;;;20.37;32.52;100785.38;2116009;84;32109;-59
2021/05/31 12:47:38;;;;;;;7.85;1.98;;;;;;;20.54;32.59;100769.48;2116724;83;33541;-59
2021/05/31 12:50:40;;;;;;;3.37;2.52;;;;;;;20.78;32.69;100776.09;2087653;84;29332;-60
2021/05/31 12:53:47;;;;;;;4.42;2.30;;;;;;;20.90;32.56;100772.34;2117002;83;27652;-60
2021/05/31 12:56:51;;;;;;;3.85;3.02;;;;;;;20.97;32.68;100769.07;2117049;84;28627;-61
2021/05/31 12:59:53;;;;;;;3.80;1.87;;;;;;;21.05;32.27;100773.38;2117105;84;31920;-60
2021/05/31 13:03:02;;;;;;;4.65;2.30;;;;;;;21.10;32.64;100769.25;2116902;84;32933;-60
2021/05/31 13:06:05;;;;;;;4.87;1.87;;;;;;;21.17;32.33;100772.30;2116951;84;29339;-61
2021/05/31 13:09:14;;;;;;;3.22;2.47;;;;;;;21.23;32.49;100762.72;2089022;84;27547;-61
2021/05/31 13:12:16;;;;;;;4.15;2.12;;;;;;;21.35;31.86;100767.09;2114453;84;28637;-60
2021/05/31 13:15:22;;;;;;;2.25;1.90;;;;;;;21.38;31.31;100759.16;2117114;84;31757;-58
2021/05/31 13:18:32;;;;;;;2.58;2.10;;;;;;;21.31;31.52;100760.69;2117556;84;32970;-60
2021/05/31 13:21:38;;;;;;;2.33;2.10;;;;;;;21.36;31.47;100757.91;2117082;84;29716;-61
2021/05/31 13:24:43;;;;;;;5.22;2.52;;;;;;;21.34;31.07;100758.58;2117123;84;27563;-58
2021/05/31 13:27:45;;;;;;;5.55;2.08;;;;;;;21.36;30.84;100762.00;2117091;84;29349;-59
2021/05/31 13:30:50;;;;;;;4.22;2.15;;;;;;;21.23;30.66;100759.52;2115343;84;30717;-58
2021/05/31 13:33:55;;;;;;;3.47;1.55;;;;;;;21.17;30.47;100751.02;2116814;83;32998;-60
2021/05/31 13:37:13;;;;;;;3.47;1.85;;;;;;;21.17;30.03;100754.59;2119160;83;29472;-59
2021/05/31 13:40:16;;;;;;;6.42;2.67;;;;;;;21.17;30.24;100746.92;2120499;83;28163;-58
2021/05/31 13:43:21;;;;;;;4.33;1.90;;;;;;;21.25;30.43;100760.25;2119743;83;28948;-57
2021/05/31 13:46:23;;;;;;;4.37;1.80;;;;;;;21.27;30.26;100743.75;2094331;83;31213;-61
2021/05/31 13:49:27;;;;;;;4.97;1.55;;;;;;;21.24;30.28;100745.37;2118726;83;34009;-61
2021/05/31 13:52:29;;;;;;;4.58;1.80;;;;;;;21.20;30.04;100743.91;2085234;85;30045;-62
2021/05/31 13:55:32;;;;;;;3.95;1.67;;;;;;;21.14;30.61;100737.14;2085332;83;27624;-64
2021/05/31 13:58:34;;;;;;;6.50;2.95;;;;;;;21.08;30.31;100742.63;2085010;83;29851;-60
2021/05/31 14:01:36;;;;;;;3.52;1.65;;;;;;;21.01;29.16;100741.94;2085042;85;31726;-59
2021/05/31 14:04:38;;;;;;;2.47;1.50;;;;;;;20.79;29.77;100745.15;2085015;85;32963;-58
2021/05/31 14:07:40;;;;;;;3.47;1.30;;;;;;;20.70;30.07;100745.41;2085046;85;30073;-59
2021/05/31 14:10:44;;;;;;;9.65;2.30;;;;;;;20.65;30.07;100747.68;2101777;83;27600;-59
2021/05/31 14:13:46;;;;;;;3.60;1.95;;;;;;;20.63;30.01;100738.27;2119484;83;29362;-57
2021/05/31 14:16:47;;;;;;;4.35;1.70;;;;;;;20.60;30.22;100736.31;2119846;83;30793;-57
2021/05/31 14:19:49;;;;;;;3.95;1.60;;;;;;;20.61;30.22;100736.68;2120501;82;33489;-58